This is the latest recevied weather packets stored in our database for station/object JF7BTK-10. If no packets are shown the sender has not sent any weather packets the latest 10 day(s).
| Time | Temp. | Humidity | Pressure | Rain* | Wind** | Luminosity | Snow |
|---|---|---|---|---|---|---|---|
| 1778227299 | 17.78° C | 75% | 996.4 hPa | 0 mm | - | - | - |
| 1778226398 | 18.33° C | 74% | 996.3 hPa | 0 mm | - | - | - |
| 1778225500 | 18.33° C | 73% | 996.5 hPa | 0 mm | - | - | - |
| 1778224598 | 18.89° C | 71% | 996.7 hPa | 0 mm | - | - | - |
| 1778224279 | 18.89° C | 71% | 996.6 hPa | 0 mm | - | - | - |
| 1778223698 | 20° C | 67% | 996.5 hPa | 0 mm | - | - | - |
| 1778222799 | 21.11° C | 62% | 996.1 hPa | 0 mm | - | - | - |
| 1778221899 | 21.11° C | 61% | 996.4 hPa | 0 mm | - | - | - |
| 1778220999 | 21.67° C | 63% | 996.4 hPa | 0 mm | - | - | - |
| 1778220099 | 21.67° C | 63% | 996.4 hPa | 0 mm | - | - | - |
| 1778219779 | 21.67° C | 62% | 996.4 hPa | 0 mm | - | - | - |
| 1778219198 | 21.11° C | 65% | 996.6 hPa | 0 mm | - | - | - |
| 1778218298 | 21.11° C | 63% | 997.1 hPa | 0 mm | - | - | - |
| 1778217400 | 21.11° C | 60% | 997.1 hPa | 0 mm | - | - | - |
| 1778216499 | 21.67° C | 60% | 997.2 hPa | 0 mm | - | - | - |
| 1778215598 | 21.11° C | 60% | 997.6 hPa | 0 mm | - | - | - |
| 1778212899 | 20.56° C | 61% | 998.2 hPa | 0 mm | - | - | - |
| 1778211999 | 20.56° C | 61% | 998.6 hPa | 0 mm | - | - | - |
| 1778211098 | 20.56° C | 60% | 998.9 hPa | 0 mm | - | - | - |
| 1778210199 | 20° C | 62% | 999.1 hPa | 0 mm | - | - | - |
| 1778209299 | 20° C | 61% | 999.5 hPa | 0 mm | - | - | - |
| 1778208399 | 20.56° C | 61% | 999.3 hPa | 0 mm | - | - | - |
| 1778207499 | 21.11° C | 60% | 999.3 hPa | 0 mm | - | - | - |
| 1778206598 | 20.56° C | 60% | 999.7 hPa | 0 mm | - | - | - |
| 1778205699 | 20° C | 62% | 1000 hPa | 0 mm | - | - | - |
* Rain latest hour (hover to see other rain measurements)
** Current wind speed in m/s (hover to see current wind gust speed)